createdAt,value
2017-01-05T00:00:12.643Z,16.00
2017-01-05T00:01:12.819Z,16.00
2017-01-05T00:02:12.339Z,16.00
2017-01-05T00:03:12.115Z,16.00
2017-01-05T00:04:11.916Z,16.00
2017-01-05T00:05:12.678Z,16.00
2017-01-05T00:06:12.604Z,16.00
2017-01-05T00:07:12.382Z,16.00
2017-01-05T00:08:12.969Z,16.00
2017-01-05T00:09:12.520Z,16.00
2017-01-05T00:10:12.344Z,16.00
2017-01-05T00:11:09.727Z,16.00
2017-01-05T00:12:11.313Z,16.00
2017-01-05T00:13:12.820Z,16.00
2017-01-05T00:14:12.027Z,16.00
2017-01-05T00:15:12.673Z,16.00
2017-01-05T00:16:10.222Z,16.00
2017-01-05T00:17:12.283Z,16.00
2017-01-05T00:18:10.242Z,16.00
2017-01-05T00:19:13.042Z,16.00
2017-01-05T00:20:12.226Z,16.00
2017-01-05T00:21:12.036Z,16.00
2017-01-05T00:22:11.866Z,16.00
2017-01-05T00:23:13.716Z,16.00
2017-01-05T00:24:11.865Z,16.00
2017-01-05T00:25:12.052Z,16.00
2017-01-05T00:26:12.580Z,16.00
2017-01-05T00:27:12.475Z,16.00
2017-01-05T00:28:10.471Z,16.00
2017-01-05T00:29:12.492Z,16.00
2017-01-05T00:30:12.419Z,16.00
2017-01-05T00:31:12.375Z,16.00
2017-01-05T00:32:12.565Z,16.00
2017-01-05T00:33:11.144Z,16.00
2017-01-05T00:34:13.558Z,16.00
2017-01-05T00:35:13.082Z,16.00
2017-01-05T00:36:11.705Z,16.00
2017-01-05T00:37:10.028Z,16.00
2017-01-05T00:38:12.685Z,16.00
2017-01-05T00:39:11.828Z,16.00
2017-01-05T00:40:12.233Z,16.00
2017-01-05T00:41:12.787Z,16.00
2017-01-05T00:42:10.529Z,16.00
2017-01-05T00:43:12.688Z,16.00
2017-01-05T00:44:13.339Z,16.00
2017-01-05T00:45:11.952Z,16.00
2017-01-05T00:46:12.467Z,16.00
2017-01-05T00:47:13.182Z,16.00
2017-01-05T00:48:11.764Z,16.00
2017-01-05T00:49:12.260Z,16.00
2017-01-05T00:50:11.919Z,16.00
2017-01-05T00:51:12.748Z,16.00
2017-01-05T00:52:11.823Z,16.00
2017-01-05T00:53:12.588Z,16.00
2017-01-05T00:54:13.122Z,16.00
2017-01-05T00:55:13.093Z,16.00
2017-01-05T00:56:11.701Z,16.00
2017-01-05T00:57:12.300Z,16.00
2017-01-05T00:58:11.941Z,16.00
2017-01-05T00:59:12.562Z,16.00
2017-01-05T01:00:12.567Z,16.00
2017-01-05T01:01:12.984Z,16.00
2017-01-05T01:02:13.812Z,16.00
2017-01-05T01:03:12.512Z,16.00
2017-01-05T01:04:09.224Z,16.00
2017-01-05T01:05:13.946Z,16.00
2017-01-05T01:06:12.713Z,16.00
2017-01-05T01:07:12.402Z,16.00
2017-01-05T01:08:12.862Z,16.00
2017-01-05T01:09:11.767Z,16.00
2017-01-05T01:10:15.254Z,16.00
2017-01-05T01:11:09.700Z,16.00
2017-01-05T01:12:13.100Z,16.00
2017-01-05T01:13:12.534Z,16.00
2017-01-05T01:14:12.356Z,16.00
2017-01-05T01:15:13.354Z,16.00
2017-01-05T01:16:13.574Z,16.00
2017-01-05T01:17:13.607Z,16.00
2017-01-05T01:18:11.758Z,16.00
2017-01-05T01:19:14.191Z,16.00
2017-01-05T01:20:12.600Z,16.00
2017-01-05T01:21:11.698Z,16.00
2017-01-05T01:22:09.474Z,16.00
2017-01-05T01:23:08.469Z,16.00
2017-01-05T01:24:11.500Z,16.00
2017-01-05T01:25:12.172Z,16.00
2017-01-05T01:26:18.025Z,16.00
2017-01-05T01:27:12.350Z,16.00
2017-01-05T01:28:12.533Z,16.00
2017-01-05T01:29:12.906Z,16.00
2017-01-05T01:30:12.703Z,16.00
2017-01-05T01:31:14.591Z,16.00
2017-01-05T01:32:09.955Z,16.00
2017-01-05T01:33:12.257Z,16.00
2017-01-05T01:34:13.639Z,16.00
2017-01-05T01:35:13.128Z,16.00
2017-01-05T01:36:11.890Z,16.00
2017-01-05T01:37:15.626Z,16.00
2017-01-05T01:38:09.308Z,16.00
2017-01-05T01:39:11.045Z,16.00
2017-01-05T01:40:10.679Z,16.00
2017-01-05T01:41:14.134Z,16.00
2017-01-05T01:42:11.110Z,16.00
2017-01-05T01:43:11.245Z,16.00
2017-01-05T01:44:12.741Z,16.00
2017-01-05T01:45:11.629Z,16.00
2017-01-05T01:46:13.765Z,16.00
2017-01-05T01:47:14.366Z,16.00
2017-01-05T01:48:14.380Z,16.00
2017-01-05T01:49:15.754Z,16.00
2017-01-05T01:50:14.774Z,16.00
2017-01-05T01:51:13.830Z,16.00
2017-01-05T01:52:13.075Z,16.00
2017-01-05T01:53:12.307Z,16.00
2017-01-05T01:54:14.373Z,16.00
2017-01-05T01:55:09.765Z,16.00
2017-01-05T01:56:12.255Z,16.00
2017-01-05T01:57:13.585Z,16.00
2017-01-05T01:58:12.309Z,16.00
2017-01-05T01:59:11.482Z,16.00
2017-01-05T02:00:13.267Z,16.00
2017-01-05T02:01:12.731Z,16.00
2017-01-05T02:02:11.281Z,16.00
2017-01-05T02:03:13.665Z,16.00
2017-01-05T02:04:12.778Z,16.00
2017-01-05T02:05:12.970Z,16.00
2017-01-05T02:06:11.127Z,16.00
2017-01-05T02:07:15.245Z,16.00
2017-01-05T02:08:15.014Z,16.00
2017-01-05T02:09:15.182Z,16.00
2017-01-05T02:10:11.184Z,16.00
2017-01-05T02:11:12.820Z,16.00
2017-01-05T02:12:13.114Z,16.00
2017-01-05T02:13:12.615Z,16.00
2017-01-05T02:14:13.065Z,16.00
2017-01-05T02:15:12.461Z,16.00
2017-01-05T02:16:12.651Z,16.00
2017-01-05T02:17:14.346Z,16.00
2017-01-05T02:18:11.151Z,16.00
2017-01-05T02:19:14.469Z,16.00
2017-01-05T02:20:14.039Z,16.00
2017-01-05T02:21:13.669Z,16.00
2017-01-05T02:22:11.687Z,16.00
2017-01-05T02:23:11.760Z,16.00
2017-01-05T02:24:11.602Z,16.00
2017-01-05T02:25:09.566Z,16.00
2017-01-05T02:26:14.154Z,16.00
2017-01-05T02:27:14.771Z,16.00
2017-01-05T02:28:12.947Z,16.00
2017-01-05T02:29:12.773Z,16.00
2017-01-05T02:30:13.764Z,16.00
2017-01-05T02:31:11.506Z,16.00
2017-01-05T02:32:12.507Z,16.00
2017-01-05T02:33:13.113Z,16.00
2017-01-05T02:34:12.726Z,16.00
2017-01-05T02:35:09.946Z,16.00
2017-01-05T02:36:12.385Z,16.00
2017-01-05T02:37:13.467Z,16.00
2017-01-05T02:38:14.352Z,16.00
2017-01-05T02:39:12.161Z,16.00
2017-01-05T02:40:11.331Z,16.00
2017-01-05T02:41:13.861Z,16.00
2017-01-05T02:42:12.471Z,16.00
2017-01-05T02:43:11.028Z,16.00
2017-01-05T02:44:11.048Z,16.00
2017-01-05T02:45:12.073Z,16.00
2017-01-05T02:46:12.135Z,16.00
2017-01-05T02:47:12.154Z,16.00
2017-01-05T02:48:13.169Z,16.00
2017-01-05T02:49:13.705Z,16.00
2017-01-05T02:50:13.436Z,16.00
2017-01-05T02:51:09.732Z,16.00
2017-01-05T02:52:12.768Z,16.00
2017-01-05T02:53:14.377Z,16.00
2017-01-05T02:54:14.453Z,16.00
2017-01-05T02:55:11.882Z,16.00
2017-01-05T02:56:12.344Z,16.00
2017-01-05T02:57:11.550Z,16.00
2017-01-05T02:58:13.421Z,16.00
2017-01-05T02:59:12.120Z,16.00
2017-01-05T03:00:11.816Z,16.00
2017-01-05T03:01:14.391Z,16.00
2017-01-05T03:02:12.675Z,16.00
2017-01-05T03:03:11.646Z,16.00
2017-01-05T03:04:13.137Z,16.00
2017-01-05T03:05:12.604Z,16.00
2017-01-05T03:06:09.965Z,16.00
2017-01-05T03:07:13.014Z,16.00
2017-01-05T03:08:14.855Z,16.00
2017-01-05T03:09:12.939Z,16.00
2017-01-05T03:10:12.487Z,16.00
2017-01-05T03:11:08.687Z,16.00
2017-01-05T03:12:11.755Z,16.00
2017-01-05T03:13:12.808Z,16.00
2017-01-05T03:14:11.751Z,16.00
2017-01-05T03:15:11.871Z,16.00
2017-01-05T03:16:12.316Z,16.00
2017-01-05T03:17:12.533Z,16.00
2017-01-05T03:18:12.439Z,16.00
2017-01-05T03:19:13.666Z,16.00
2017-01-05T03:20:10.288Z,16.00
2017-01-05T03:21:14.224Z,16.00
2017-01-05T03:22:11.977Z,16.00
2017-01-05T03:23:12.045Z,16.00
2017-01-05T03:24:12.133Z,16.00
2017-01-05T03:25:09.732Z,16.00
2017-01-05T03:26:11.114Z,16.00
2017-01-05T03:27:11.970Z,16.00
2017-01-05T03:28:10.436Z,16.00
2017-01-05T03:29:12.797Z,16.00
2017-01-05T03:30:14.797Z,16.00
2017-01-05T03:31:13.373Z,16.00
2017-01-05T03:32:12.755Z,16.00
2017-01-05T03:33:10.705Z,16.00
2017-01-05T03:34:13.355Z,16.00
2017-01-05T03:35:13.282Z,16.00
2017-01-05T03:36:11.327Z,16.00
2017-01-05T03:37:11.916Z,16.00
2017-01-05T03:38:10.375Z,16.00
2017-01-05T03:39:09.117Z,16.00
2017-01-05T03:40:12.556Z,16.00
2017-01-05T03:41:12.703Z,16.00
2017-01-05T03:42:12.928Z,16.00
2017-01-05T03:43:12.453Z,16.00
2017-01-05T03:44:12.586Z,16.00
2017-01-05T03:45:12.197Z,16.00
2017-01-05T03:46:12.125Z,16.00
2017-01-05T03:47:11.333Z,16.00
2017-01-05T03:48:11.225Z,16.00
2017-01-05T03:49:12.066Z,16.00
2017-01-05T03:50:12.778Z,16.00
2017-01-05T03:51:13.453Z,16.00
2017-01-05T03:52:13.372Z,16.00
2017-01-05T03:53:12.361Z,16.00
2017-01-05T03:54:12.836Z,16.00
2017-01-05T03:55:12.538Z,16.00
2017-01-05T03:56:12.706Z,16.00
2017-01-05T03:57:12.662Z,16.00
2017-01-05T03:58:13.283Z,16.00
2017-01-05T03:59:11.857Z,16.00
2017-01-05T04:00:10.317Z,16.00
2017-01-05T04:01:12.805Z,16.00
2017-01-05T04:02:12.778Z,16.00
2017-01-05T04:03:12.988Z,16.00
2017-01-05T04:04:12.818Z,16.00
2017-01-05T04:05:10.067Z,16.00
2017-01-05T04:06:13.636Z,16.00
2017-01-05T04:07:12.519Z,16.00
2017-01-05T04:08:11.944Z,16.00
2017-01-05T04:09:14.527Z,16.00
2017-01-05T04:10:13.114Z,16.00
2017-01-05T04:11:12.675Z,16.00
2017-01-05T04:12:11.838Z,16.00
2017-01-05T04:13:12.166Z,16.00
2017-01-05T04:14:10.832Z,16.00
2017-01-05T04:15:11.851Z,16.00
2017-01-05T04:16:12.408Z,16.00
2017-01-05T04:17:12.817Z,16.00
2017-01-05T04:18:12.354Z,16.00
2017-01-05T04:19:11.457Z,16.00
2017-01-05T04:20:12.068Z,16.00
2017-01-05T04:21:13.887Z,16.00
2017-01-05T04:22:12.559Z,16.00
2017-01-05T04:23:12.505Z,16.00
2017-01-05T04:24:12.155Z,16.00
2017-01-05T04:25:11.729Z,16.00
2017-01-05T04:26:13.764Z,16.00
2017-01-05T04:27:11.775Z,16.00
2017-01-05T04:28:13.538Z,16.00
2017-01-05T04:29:12.075Z,16.00
2017-01-05T04:30:12.753Z,16.00
2017-01-05T04:31:08.940Z,16.00
2017-01-05T04:32:12.584Z,16.00
2017-01-05T04:33:12.997Z,16.00
2017-01-05T04:34:14.358Z,16.00
2017-01-05T04:35:12.345Z,16.00
2017-01-05T04:36:11.687Z,16.00
2017-01-05T04:37:12.082Z,16.00
2017-01-05T04:38:08.931Z,16.00
2017-01-05T04:39:12.074Z,16.00
2017-01-05T04:40:11.899Z,16.00
2017-01-05T04:41:12.602Z,16.00
2017-01-05T04:42:12.540Z,16.00
2017-01-05T04:43:11.763Z,16.00
2017-01-05T04:44:09.625Z,16.00
2017-01-05T04:45:11.566Z,16.00
2017-01-05T04:46:11.616Z,16.00
2017-01-05T04:47:13.416Z,16.00
2017-01-05T04:48:12.084Z,16.00
2017-01-05T04:49:14.011Z,16.00
2017-01-05T04:50:08.303Z,16.00
2017-01-05T04:51:12.535Z,16.00
2017-01-05T04:52:12.085Z,16.00
2017-01-05T04:53:11.131Z,16.00
2017-01-05T04:54:13.843Z,16.00
2017-01-05T04:55:12.352Z,16.00
2017-01-05T04:56:12.531Z,16.00
2017-01-05T04:57:11.594Z,16.00
2017-01-05T04:58:13.256Z,16.00
2017-01-05T04:59:12.916Z,16.00
2017-01-05T05:00:11.943Z,16.00
2017-01-05T05:01:12.417Z,16.00
2017-01-05T05:02:11.461Z,16.00
2017-01-05T05:03:12.105Z,16.00
2017-01-05T05:04:13.506Z,16.00
2017-01-05T05:05:12.168Z,16.00
2017-01-05T05:06:11.812Z,16.00
2017-01-05T05:07:12.349Z,16.00
2017-01-05T05:08:12.077Z,16.00
2017-01-05T05:09:11.411Z,16.00
2017-01-05T05:10:11.811Z,16.00
2017-01-05T05:11:10.255Z,16.00
2017-01-05T05:12:12.731Z,16.00
2017-01-05T05:13:11.847Z,16.00
2017-01-05T05:14:12.689Z,16.00
2017-01-05T05:15:12.519Z,16.00
2017-01-05T05:16:12.364Z,16.00
2017-01-05T05:17:13.856Z,16.00
2017-01-05T05:18:12.541Z,16.00
2017-01-05T05:19:13.342Z,16.00
2017-01-05T05:20:11.355Z,16.00
2017-01-05T05:21:09.991Z,16.00
2017-01-05T05:22:12.122Z,16.00
2017-01-05T05:23:12.165Z,16.00
2017-01-05T05:24:12.043Z,16.00
2017-01-05T05:25:12.272Z,16.00
2017-01-05T05:26:12.439Z,16.00
2017-01-05T05:27:14.786Z,16.00
2017-01-05T05:28:15.221Z,16.00
2017-01-05T05:29:12.559Z,16.00
2017-01-05T05:30:09.804Z,16.00
2017-01-05T05:31:12.081Z,16.00
2017-01-05T05:32:13.424Z,16.00
2017-01-05T05:33:12.994Z,16.00
2017-01-05T05:34:13.733Z,16.00
2017-01-05T05:35:08.964Z,16.00
2017-01-05T05:36:11.907Z,16.00
2017-01-05T05:37:13.603Z,16.00
2017-01-05T05:38:11.601Z,16.00
2017-01-05T05:39:12.412Z,16.00
2017-01-05T05:40:12.744Z,16.00
2017-01-05T05:41:12.408Z,16.00
2017-01-05T05:42:12.216Z,16.00
2017-01-05T05:43:11.762Z,16.00
2017-01-05T05:44:11.523Z,16.00
2017-01-05T05:45:11.891Z,16.00
2017-01-05T05:46:10.279Z,16.00
2017-01-05T05:47:11.787Z,16.00
2017-01-05T05:48:13.901Z,16.00
2017-01-05T05:49:14.461Z,16.00
2017-01-05T05:50:09.755Z,16.00
2017-01-05T05:51:10.785Z,16.00
2017-01-05T05:52:12.215Z,16.00
2017-01-05T05:53:12.093Z,16.00
2017-01-05T05:54:12.805Z,16.00
2017-01-05T05:55:11.504Z,16.00
2017-01-05T05:56:11.596Z,16.00
2017-01-05T05:57:09.459Z,16.00
2017-01-05T05:58:13.620Z,16.00
2017-01-05T05:59:09.452Z,16.00
2017-01-05T06:00:12.506Z,16.00
2017-01-05T06:01:11.034Z,16.00
2017-01-05T06:02:14.251Z,16.00
2017-01-05T06:03:11.371Z,16.00
2017-01-05T06:04:11.304Z,16.00
2017-01-05T06:05:12.874Z,16.00
2017-01-05T06:06:12.752Z,16.00
2017-01-05T06:07:11.793Z,16.00
2017-01-05T06:08:13.363Z,16.00
2017-01-05T06:09:11.462Z,16.00
2017-01-05T06:10:10.054Z,16.00
2017-01-05T06:11:13.505Z,16.00
2017-01-05T06:12:13.512Z,16.00
2017-01-05T06:13:12.106Z,16.00
2017-01-05T06:14:08.908Z,16.00
2017-01-05T06:15:12.471Z,16.00
2017-01-05T06:16:11.560Z,16.00
2017-01-05T06:17:13.271Z,16.00
2017-01-05T06:18:12.112Z,16.00
2017-01-05T06:19:11.821Z,16.00
2017-01-05T06:20:13.356Z,16.00
2017-01-05T06:21:09.381Z,16.00
2017-01-05T06:22:18.675Z,16.00
2017-01-05T06:23:13.929Z,16.00
2017-01-05T06:24:12.713Z,16.00
2017-01-05T06:25:11.737Z,16.00
2017-01-05T06:26:12.469Z,16.00
2017-01-05T06:27:09.926Z,16.00
2017-01-05T06:28:09.753Z,16.00
2017-01-05T06:29:12.282Z,16.00
2017-01-05T06:30:12.622Z,16.00
2017-01-05T06:31:12.019Z,16.00
2017-01-05T06:32:13.452Z,16.00
2017-01-05T06:33:13.089Z,16.00
2017-01-05T06:34:11.846Z,16.00
2017-01-05T06:35:13.149Z,16.00
2017-01-05T06:36:11.090Z,16.00
2017-01-05T06:37:10.986Z,16.00
2017-01-05T06:38:12.401Z,16.00
2017-01-05T06:39:12.034Z,16.00
2017-01-05T06:40:12.541Z,16.00
2017-01-05T06:41:11.629Z,16.00
2017-01-05T06:42:10.596Z,16.00
2017-01-05T06:43:13.448Z,16.00
2017-01-05T06:44:15.017Z,16.00
2017-01-05T06:45:11.106Z,16.00
2017-01-05T06:46:09.850Z,16.00
2017-01-05T06:47:11.895Z,16.00
2017-01-05T06:48:12.232Z,16.00
2017-01-05T06:49:09.871Z,16.00
2017-01-05T06:50:11.453Z,16.00
2017-01-05T06:51:12.602Z,16.00
2017-01-05T06:52:10.047Z,16.00
2017-01-05T06:53:11.807Z,16.00
2017-01-05T06:54:09.341Z,16.00
2017-01-05T06:55:12.098Z,16.00
2017-01-05T06:56:11.047Z,16.00
2017-01-05T06:57:11.237Z,16.00
2017-01-05T06:58:11.275Z,16.00
2017-01-05T06:59:11.304Z,16.00
2017-01-05T07:00:12.107Z,16.00
2017-01-05T07:01:12.331Z,16.00
2017-01-05T07:02:12.276Z,16.00
2017-01-05T07:03:11.818Z,16.00
2017-01-05T07:04:12.689Z,16.00
2017-01-05T07:05:12.550Z,16.00
2017-01-05T07:06:11.300Z,16.00
2017-01-05T07:07:13.771Z,16.00
2017-01-05T07:08:13.578Z,16.00
2017-01-05T07:09:11.567Z,16.00
2017-01-05T07:10:12.196Z,16.00
2017-01-05T07:11:11.413Z,16.00
2017-01-05T07:12:13.278Z,16.00
2017-01-05T07:13:11.358Z,16.00
2017-01-05T07:14:12.776Z,16.00
2017-01-05T07:15:12.490Z,16.00
2017-01-05T07:16:12.257Z,16.00
2017-01-05T07:17:12.966Z,16.00
2017-01-05T07:18:14.927Z,16.00
2017-01-05T07:19:10.092Z,16.00
2017-01-05T07:20:12.477Z,16.00
2017-01-05T07:21:11.538Z,16.00
2017-01-05T07:22:12.603Z,16.00
2017-01-05T07:23:13.568Z,16.00
2017-01-05T07:24:12.489Z,16.00
2017-01-05T07:25:13.038Z,16.00
2017-01-05T07:26:12.123Z,16.00
2017-01-05T07:27:13.730Z,16.00
2017-01-05T07:28:09.648Z,16.00
2017-01-05T07:29:11.772Z,16.00
2017-01-05T07:30:12.325Z,16.00
2017-01-05T07:31:13.023Z,16.00
2017-01-05T07:32:11.689Z,16.00
2017-01-05T07:33:10.524Z,16.00
2017-01-05T07:34:12.876Z,16.00
2017-01-05T07:35:11.938Z,16.00
2017-01-05T07:36:12.556Z,16.00
2017-01-05T07:37:12.188Z,16.00
2017-01-05T07:38:12.904Z,15.90
2017-01-05T07:39:13.635Z,16.00
2017-01-05T07:40:10.387Z,16.00
2017-01-05T07:41:11.833Z,16.00
2017-01-05T07:42:10.440Z,16.00
2017-01-05T07:43:12.787Z,16.00
2017-01-05T07:44:12.732Z,16.00
2017-01-05T07:45:12.685Z,16.00
2017-01-05T07:46:10.119Z,16.00
2017-01-05T07:47:11.659Z,16.00
2017-01-05T07:48:12.659Z,16.00
2017-01-05T07:49:11.596Z,16.00
2017-01-05T07:50:11.719Z,16.00
2017-01-05T07:51:12.214Z,16.00
2017-01-05T07:52:11.741Z,16.00
2017-01-05T07:53:11.808Z,16.00
2017-01-05T07:54:10.584Z,16.00
2017-01-05T07:55:12.319Z,16.00
2017-01-05T07:56:12.137Z,16.00
2017-01-05T07:57:08.271Z,16.00
2017-01-05T07:58:10.179Z,16.00
2017-01-05T07:59:13.584Z,16.00
2017-01-05T08:00:14.794Z,16.00
2017-01-05T08:01:11.713Z,16.00
2017-01-05T08:02:13.157Z,16.00
2017-01-05T08:03:11.864Z,16.00
2017-01-05T08:04:13.382Z,16.00
2017-01-05T08:05:11.960Z,16.00
2017-01-05T08:06:10.320Z,16.00
2017-01-05T08:07:10.952Z,16.00
2017-01-05T08:08:12.409Z,15.90
2017-01-05T08:09:13.558Z,16.00
2017-01-05T08:10:12.644Z,15.90
2017-01-05T08:11:12.371Z,16.00
2017-01-05T08:12:10.256Z,16.00
2017-01-05T08:13:11.255Z,16.00
2017-01-05T08:14:12.356Z,16.00
2017-01-05T08:15:19.658Z,16.00
2017-01-05T08:16:13.075Z,16.00
2017-01-05T08:17:12.389Z,16.00
2017-01-05T08:18:12.490Z,16.00
2017-01-05T08:19:12.623Z,16.00
2017-01-05T08:20:12.688Z,16.00
2017-01-05T08:21:09.976Z,16.00
2017-01-05T08:22:11.597Z,16.00
2017-01-05T08:23:13.365Z,16.00
2017-01-05T08:24:13.001Z,16.00
2017-01-05T08:25:12.296Z,16.00
2017-01-05T08:26:11.409Z,16.00
2017-01-05T08:27:13.257Z,16.00
2017-01-05T08:28:11.264Z,16.00
2017-01-05T08:29:11.363Z,16.00
2017-01-05T08:30:12.940Z,16.00
2017-01-05T08:31:12.719Z,16.00
2017-01-05T08:32:12.143Z,16.00
2017-01-05T08:33:10.224Z,16.00
2017-01-05T08:34:12.042Z,16.00
2017-01-05T08:35:11.120Z,16.00
2017-01-05T08:36:13.028Z,16.00
2017-01-05T08:37:12.226Z,15.70
2017-01-05T08:38:14.255Z,13.80
2017-01-05T08:39:11.803Z,12.00
2017-01-05T08:40:10.701Z,10.20
2017-01-05T08:41:12.720Z,9.30
2017-01-05T08:42:11.756Z,8.30
2017-01-05T08:43:11.623Z,7.70
2017-01-05T08:44:13.864Z,7.70
2017-01-05T08:45:09.722Z,8.10
2017-01-05T08:46:11.788Z,8.80
2017-01-05T08:47:12.664Z,9.60
2017-01-05T08:48:11.831Z,10.30
2017-01-05T08:49:12.446Z,11.00
2017-01-05T08:50:11.464Z,11.50
2017-01-05T08:51:13.079Z,12.00
2017-01-05T08:52:11.899Z,12.50
2017-01-05T08:53:12.612Z,12.90
2017-01-05T08:54:13.123Z,13.20
2017-01-05T08:55:11.929Z,13.50
2017-01-05T08:56:14.429Z,13.80
2017-01-05T08:57:18.734Z,13.90
2017-01-05T08:58:10.069Z,14.20
2017-01-05T08:59:12.285Z,14.30
2017-01-05T09:00:11.897Z,14.40
2017-01-05T09:01:10.251Z,14.60
2017-01-05T09:02:11.922Z,14.70
2017-01-05T09:03:12.608Z,14.80
2017-01-05T09:04:09.899Z,14.90
2017-01-05T09:05:11.989Z,14.90
2017-01-05T09:06:11.975Z,15.00
2017-01-05T09:07:12.339Z,15.10
2017-01-05T09:08:11.345Z,15.20
2017-01-05T09:09:12.089Z,15.20
2017-01-05T09:10:11.338Z,15.30
2017-01-05T09:11:12.972Z,15.30
2017-01-05T09:12:11.968Z,15.40
2017-01-05T09:13:12.606Z,15.40
2017-01-05T09:14:11.761Z,15.50
2017-01-05T09:15:11.867Z,15.50
2017-01-05T09:16:12.310Z,15.60
2017-01-05T09:17:10.058Z,15.60
2017-01-05T09:18:11.886Z,15.70
2017-01-05T09:19:12.457Z,15.70
2017-01-05T09:20:13.283Z,15.70
2017-01-05T09:21:11.758Z,15.80
2017-01-05T09:22:13.169Z,15.80
2017-01-05T09:23:11.903Z,15.80
2017-01-05T09:24:12.784Z,15.90
2017-01-05T09:25:11.274Z,15.90
2017-01-05T09:26:11.802Z,15.90
2017-01-05T09:27:12.635Z,16.00
2017-01-05T09:28:12.332Z,16.00
2017-01-05T09:29:11.400Z,16.00
2017-01-05T09:30:12.158Z,16.00
2017-01-05T09:31:14.174Z,16.00
2017-01-05T09:32:12.887Z,16.00
2017-01-05T09:33:12.431Z,16.10
2017-01-05T09:34:11.656Z,16.10
2017-01-05T09:35:12.322Z,16.10
2017-01-05T09:36:12.911Z,16.10
2017-01-05T09:37:11.822Z,16.10
2017-01-05T09:38:12.320Z,16.10
2017-01-05T09:39:11.463Z,16.10
2017-01-05T09:40:12.025Z,16.10
2017-01-05T09:41:11.190Z,16.10
2017-01-05T09:42:11.190Z,16.10
2017-01-05T09:43:11.284Z,16.10
2017-01-05T09:44:11.896Z,16.10
2017-01-05T09:45:13.558Z,16.10
2017-01-05T09:46:11.599Z,16.10
2017-01-05T09:47:13.331Z,16.10
2017-01-05T09:48:11.416Z,16.10
2017-01-05T09:49:11.482Z,16.10
2017-01-05T09:50:12.085Z,16.10
2017-01-05T09:51:11.807Z,16.10
2017-01-05T09:52:12.518Z,16.10
2017-01-05T09:53:09.912Z,16.10
2017-01-05T09:54:10.846Z,16.10
2017-01-05T09:55:14.570Z,16.10
2017-01-05T09:56:13.525Z,16.10
2017-01-05T09:57:11.398Z,16.10
2017-01-05T09:58:11.348Z,16.10
2017-01-05T09:59:12.973Z,16.10
2017-01-05T10:00:12.756Z,16.00
2017-01-05T10:01:14.153Z,16.10
2017-01-05T10:02:11.828Z,16.00
2017-01-05T10:03:15.586Z,16.00
2017-01-05T10:04:13.314Z,16.00
2017-01-05T10:05:11.855Z,16.00
2017-01-05T10:06:12.707Z,16.00
2017-01-05T10:07:13.291Z,16.00
2017-01-05T10:08:11.897Z,16.00
2017-01-05T10:09:10.746Z,16.00
2017-01-05T10:10:11.923Z,16.00
2017-01-05T10:11:12.331Z,16.00
2017-01-05T10:12:12.105Z,15.90
2017-01-05T10:13:11.224Z,15.90
2017-01-05T10:14:11.333Z,15.90
2017-01-05T10:15:11.403Z,15.90
2017-01-05T10:16:11.463Z,15.90
2017-01-05T10:17:15.890Z,15.90
2017-01-05T10:18:12.145Z,15.90
2017-01-05T10:19:11.702Z,15.90
2017-01-05T10:20:12.621Z,15.90
2017-01-05T10:21:11.580Z,15.90
2017-01-05T10:22:11.612Z,15.90
2017-01-05T10:23:13.352Z,15.90
2017-01-05T10:24:12.947Z,15.90
2017-01-05T10:25:12.622Z,15.90
2017-01-05T10:26:11.727Z,15.90
2017-01-05T10:27:12.784Z,15.90
2017-01-05T10:28:11.824Z,15.90
2017-01-05T10:29:13.651Z,15.90
2017-01-05T10:30:12.252Z,15.90
2017-01-05T10:31:09.923Z,15.90
2017-01-05T10:32:12.003Z,15.90
2017-01-05T10:33:13.563Z,15.90
2017-01-05T10:34:12.212Z,15.90
2017-01-05T10:35:12.031Z,15.90
2017-01-05T10:36:12.548Z,15.90
2017-01-05T10:37:13.159Z,15.90
2017-01-05T10:38:11.816Z,15.90
2017-01-05T10:39:12.817Z,15.80
2017-01-05T10:40:11.920Z,15.90
2017-01-05T10:41:11.182Z,15.80
2017-01-05T10:42:13.093Z,15.90
2017-01-05T10:43:11.793Z,15.90
2017-01-05T10:44:11.866Z,15.90
2017-01-05T10:45:12.521Z,15.90
2017-01-05T10:46:11.468Z,15.90
2017-01-05T10:47:12.079Z,15.90
2017-01-05T10:48:12.075Z,15.90
2017-01-05T10:49:11.901Z,15.90
2017-01-05T10:50:12.493Z,15.90
2017-01-05T10:51:12.640Z,15.90
2017-01-05T10:52:14.413Z,15.90
2017-01-05T10:53:14.199Z,15.90
2017-01-05T10:54:12.060Z,15.90
2017-01-05T10:55:09.898Z,15.90
2017-01-05T10:56:12.834Z,15.90
2017-01-05T10:57:11.777Z,15.90
2017-01-05T10:58:13.272Z,15.90
2017-01-05T10:59:11.910Z,16.00
2017-01-05T11:00:11.919Z,16.00
2017-01-05T11:01:11.812Z,16.00
2017-01-05T11:02:12.384Z,16.00
2017-01-05T11:03:12.277Z,16.00
2017-01-05T11:04:12.792Z,16.00
2017-01-05T11:05:11.999Z,16.00
2017-01-05T11:06:09.804Z,16.00
2017-01-05T11:07:09.764Z,16.00
2017-01-05T11:08:11.764Z,16.00
2017-01-05T11:09:11.893Z,16.00
2017-01-05T11:10:12.828Z,16.00
2017-01-05T11:11:12.463Z,16.00
2017-01-05T11:12:11.370Z,16.00
2017-01-05T11:13:11.735Z,16.00
2017-01-05T11:14:13.313Z,16.00
2017-01-05T11:15:12.805Z,16.00
2017-01-05T11:16:11.893Z,16.00
2017-01-05T11:17:12.675Z,16.00
2017-01-05T11:18:12.756Z,16.00
2017-01-05T11:19:11.844Z,16.00
2017-01-05T11:20:10.108Z,16.00
2017-01-05T11:21:13.859Z,16.10
2017-01-05T11:22:11.251Z,16.00
2017-01-05T11:23:12.384Z,16.00
2017-01-05T11:24:11.525Z,16.00
2017-01-05T11:25:12.158Z,16.00
2017-01-05T11:26:11.271Z,16.00
2017-01-05T11:27:11.759Z,16.00
2017-01-05T11:28:12.208Z,16.00
2017-01-05T11:29:09.055Z,16.00
2017-01-05T11:30:12.807Z,16.10
2017-01-05T11:31:13.332Z,16.10
2017-01-05T11:32:13.102Z,16.10
2017-01-05T11:33:13.038Z,16.10
2017-01-05T11:34:12.491Z,16.10
2017-01-05T11:35:12.272Z,16.00
2017-01-05T11:36:11.802Z,16.00
2017-01-05T11:37:11.908Z,16.00
2017-01-05T11:38:12.613Z,16.00
2017-01-05T11:39:11.728Z,16.00
2017-01-05T11:40:10.654Z,16.00
2017-01-05T11:41:11.126Z,16.00
2017-01-05T11:42:10.765Z,16.00
2017-01-05T11:43:12.935Z,16.00
2017-01-05T11:44:13.135Z,16.00
2017-01-05T11:45:11.662Z,16.00
2017-01-05T11:46:12.213Z,16.00
2017-01-05T11:47:11.443Z,16.00
2017-01-05T11:48:11.568Z,16.00
2017-01-05T11:49:11.609Z,16.00
2017-01-05T11:50:12.114Z,16.00
2017-01-05T11:51:13.300Z,16.00
2017-01-05T11:52:11.211Z,16.00
2017-01-05T11:53:12.973Z,16.00
2017-01-05T11:54:12.847Z,16.00
2017-01-05T11:55:10.078Z,16.00
2017-01-05T11:56:12.228Z,16.00
2017-01-05T11:57:11.745Z,16.00
2017-01-05T11:58:11.656Z,16.00
2017-01-05T11:59:12.293Z,16.10
2017-01-05T12:00:13.321Z,16.00
2017-01-05T12:01:09.243Z,16.10
2017-01-05T12:02:10.401Z,16.00
2017-01-05T12:03:12.884Z,16.00
2017-01-05T12:04:13.404Z,16.00
2017-01-05T12:05:11.395Z,16.00
2017-01-05T12:06:09.784Z,16.10
2017-01-05T12:07:09.047Z,16.10
2017-01-05T12:08:11.861Z,16.10
2017-01-05T12:09:09.797Z,16.10
2017-01-05T12:10:12.859Z,16.00
2017-01-05T12:11:14.963Z,16.00
2017-01-05T12:12:10.374Z,16.00
2017-01-05T12:13:13.061Z,16.00
2017-01-05T12:14:11.924Z,16.00
2017-01-05T12:15:12.384Z,16.00
2017-01-05T12:16:11.146Z,16.00
2017-01-05T12:17:08.547Z,16.00
2017-01-05T12:18:12.793Z,16.00
2017-01-05T12:19:09.290Z,16.00
2017-01-05T12:20:08.633Z,16.00
2017-01-05T12:21:10.538Z,16.00
2017-01-05T12:22:13.884Z,15.90
2017-01-05T12:23:12.736Z,15.90
2017-01-05T12:24:11.767Z,15.90
2017-01-05T12:25:13.345Z,15.90
2017-01-05T12:26:11.415Z,15.90
2017-01-05T12:27:11.914Z,15.90
2017-01-05T12:28:12.973Z,15.90
2017-01-05T12:29:11.616Z,15.90
2017-01-05T12:30:11.736Z,15.90
2017-01-05T12:31:12.234Z,15.90
2017-01-05T12:32:12.256Z,15.90
2017-01-05T12:33:09.844Z,15.90
2017-01-05T12:34:13.157Z,15.90
2017-01-05T12:35:11.716Z,15.90
2017-01-05T12:36:12.599Z,16.00
2017-01-05T12:37:12.223Z,16.00
2017-01-05T12:38:12.295Z,16.00
2017-01-05T12:39:12.106Z,16.00
2017-01-05T12:40:12.956Z,15.90
2017-01-05T12:41:11.129Z,16.00
2017-01-05T12:42:14.294Z,16.00
2017-01-05T12:43:11.836Z,16.00
2017-01-05T12:44:12.876Z,16.00
2017-01-05T12:45:11.814Z,16.00
2017-01-05T12:46:13.743Z,16.00
2017-01-05T12:47:12.810Z,16.00
2017-01-05T12:48:11.857Z,16.00
2017-01-05T12:49:14.299Z,16.00
2017-01-05T12:50:11.390Z,16.00
2017-01-05T12:51:11.567Z,16.00
2017-01-05T12:52:09.424Z,16.00